createdAt,value
2017-02-05T00:00:09.420Z,22.42
2017-02-05T00:00:23.936Z,22.45
2017-02-05T00:00:38.421Z,22.34
2017-02-05T00:00:53.010Z,22.41
2017-02-05T00:01:07.539Z,22.31
2017-02-05T00:01:22.071Z,22.39
2017-02-05T00:01:36.580Z,22.38
2017-02-05T00:01:51.141Z,22.29
2017-02-05T00:02:05.642Z,22.31
2017-02-05T00:02:20.207Z,22.34
2017-02-05T00:02:34.723Z,22.41
2017-02-05T00:02:49.259Z,22.33
2017-02-05T00:03:03.715Z,22.36
2017-02-05T00:03:18.251Z,22.26
2017-02-05T00:03:32.793Z,22.24
2017-02-05T00:03:47.284Z,22.26
2017-02-05T00:04:01.798Z,22.26
2017-02-05T00:04:16.381Z,22.18
2017-02-05T00:04:31.141Z,22.22
2017-02-05T00:04:45.638Z,22.24
2017-02-05T00:05:00.166Z,22.24
2017-02-05T00:05:14.663Z,22.14
2017-02-05T00:05:29.152Z,22.18
2017-02-05T00:05:43.679Z,22.24
2017-02-05T00:05:58.220Z,22.2
2017-02-05T00:06:12.814Z,22.27
2017-02-05T00:06:27.350Z,22.27
2017-02-05T00:06:41.919Z,22.26
2017-02-05T00:06:56.446Z,22.24
2017-02-05T00:07:10.920Z,22.33
2017-02-05T00:07:25.482Z,22.26
2017-02-05T00:07:40.055Z,22.26
2017-02-05T00:07:54.559Z,22.29
2017-02-05T00:08:09.087Z,22.3
2017-02-05T00:08:23.578Z,22.3
2017-02-05T00:08:38.129Z,22.31
2017-02-05T00:08:52.628Z,22.33
2017-02-05T00:09:07.218Z,22.33
2017-02-05T00:09:21.735Z,22.33
2017-02-05T00:09:36.235Z,22.26
2017-02-05T00:09:50.728Z,22.29
2017-02-05T00:10:05.441Z,22.26
2017-02-05T00:10:19.964Z,22.24
2017-02-05T00:10:34.502Z,22.31
2017-02-05T00:10:49.025Z,22.22
2017-02-05T00:11:03.742Z,22.23
2017-02-05T00:11:18.273Z,22.2
2017-02-05T00:11:32.832Z,22.2
2017-02-05T00:11:47.367Z,22.15
2017-02-05T00:12:01.944Z,22.09
2017-02-05T00:12:16.475Z,22.12
2017-02-05T00:12:31.038Z,22.07
2017-02-05T00:12:45.655Z,22.08
2017-02-05T00:13:00.223Z,22.09
2017-02-05T00:13:14.768Z,22.07
2017-02-05T00:13:29.324Z,22.11
2017-02-05T00:13:43.783Z,22.11
2017-02-05T00:13:58.350Z,22.14
2017-02-05T00:14:12.899Z,22.14
2017-02-05T00:14:27.985Z,22.07
2017-02-05T00:14:42.554Z,22.04
2017-02-05T00:14:57.062Z,22.05
2017-02-05T00:15:11.592Z,22.04
2017-02-05T00:15:26.065Z,21.96
2017-02-05T00:15:40.566Z,21.93
2017-02-05T00:15:55.074Z,21.93
2017-02-05T00:16:09.657Z,22.02
2017-02-05T00:16:24.256Z,22.05
2017-02-05T00:16:38.777Z,22.05
2017-02-05T00:16:53.313Z,22.04
2017-02-05T00:17:07.827Z,22.04
2017-02-05T00:17:22.353Z,22.04
2017-02-05T00:17:36.937Z,22
2017-02-05T00:17:51.475Z,22.04
2017-02-05T00:18:06.050Z,22.04
2017-02-05T00:18:20.539Z,21.99
2017-02-05T00:18:35.078Z,22.07
2017-02-05T00:18:49.580Z,22.08
2017-02-05T00:19:04.124Z,22.04
2017-02-05T00:19:18.676Z,22.02
2017-02-05T00:19:33.244Z,21.94
2017-02-05T00:19:47.741Z,21.99
2017-02-05T00:20:02.283Z,21.96
2017-02-05T00:20:16.817Z,22
2017-02-05T00:20:31.356Z,22.04
2017-02-05T00:20:45.882Z,22.05
2017-02-05T00:21:00.408Z,22
2017-02-05T00:21:14.905Z,22
2017-02-05T00:21:29.517Z,22.04
2017-02-05T00:21:44.094Z,21.99
2017-02-05T00:21:58.634Z,21.96
2017-02-05T00:22:13.132Z,22.02
2017-02-05T00:22:27.655Z,21.99
2017-02-05T00:22:42.171Z,22.05
2017-02-05T00:22:56.639Z,22.09
2017-02-05T00:23:11.129Z,22.05
2017-02-05T00:23:25.626Z,21.97
2017-02-05T00:23:40.130Z,22.04
2017-02-05T00:23:54.620Z,21.92
2017-02-05T00:24:09.162Z,21.97
2017-02-05T00:24:23.721Z,21.9
2017-02-05T00:24:38.234Z,21.9
2017-02-05T00:24:52.759Z,21.82
2017-02-05T00:25:07.290Z,21.9
2017-02-05T00:25:21.837Z,21.85
2017-02-05T00:25:36.384Z,21.8
2017-02-05T00:25:50.949Z,21.86
2017-02-05T00:26:05.655Z,21.86
2017-02-05T00:26:20.146Z,21.85
2017-02-05T00:26:34.717Z,21.85
2017-02-05T00:26:49.237Z,21.73
2017-02-05T00:27:03.743Z,21.74
2017-02-05T00:27:18.319Z,21.71
2017-02-05T00:27:32.870Z,21.74
2017-02-05T00:27:47.344Z,21.74
2017-02-05T00:28:01.939Z,21.77
2017-02-05T00:28:16.395Z,21.74
2017-02-05T00:28:30.894Z,21.7
2017-02-05T00:28:45.439Z,21.68
2017-02-05T00:28:59.949Z,21.68
2017-02-05T00:29:14.463Z,21.7
2017-02-05T00:29:29.005Z,21.7
2017-02-05T00:29:43.499Z,21.62
2017-02-05T00:29:58.070Z,21.62
2017-02-05T00:30:12.570Z,21.59
2017-02-05T00:30:27.081Z,21.67
2017-02-05T00:30:41.624Z,21.67
2017-02-05T00:30:56.124Z,21.62
2017-02-05T00:31:10.592Z,21.7
2017-02-05T00:31:25.052Z,21.68
2017-02-05T00:31:39.584Z,21.7
2017-02-05T00:31:54.141Z,21.74
2017-02-05T00:32:08.634Z,21.73
2017-02-05T00:32:23.146Z,21.73
2017-02-05T00:32:37.672Z,21.82
2017-02-05T00:32:52.193Z,21.85
2017-02-05T00:33:06.668Z,21.86
2017-02-05T00:33:21.174Z,21.83
2017-02-05T00:33:35.741Z,21.96
2017-02-05T00:33:50.213Z,21.9
2017-02-05T00:34:04.716Z,21.96
2017-02-05T00:34:19.251Z,21.94
2017-02-05T00:34:33.783Z,22.02
2017-02-05T00:34:48.279Z,22.02
2017-02-05T00:35:02.886Z,21.96
2017-02-05T00:35:17.406Z,22.07
2017-02-05T00:35:31.900Z,22.05
2017-02-05T00:35:46.429Z,22.07
2017-02-05T00:36:01.011Z,22.08
2017-02-05T00:36:15.564Z,22.09
2017-02-05T00:36:30.106Z,22.11
2017-02-05T00:36:44.603Z,22.09
2017-02-05T00:36:59.134Z,22.05
2017-02-05T00:37:13.686Z,22.09
2017-02-05T00:37:28.238Z,22.11
2017-02-05T00:37:42.764Z,22.05
2017-02-05T00:37:57.293Z,21.93
2017-02-05T00:38:11.823Z,22.02
2017-02-05T00:38:26.357Z,22.07
2017-02-05T00:38:40.846Z,22
2017-02-05T00:38:55.399Z,22.07
2017-02-05T00:39:09.906Z,22.07
2017-02-05T00:39:24.454Z,22.02
2017-02-05T00:39:39.012Z,21.94
2017-02-05T00:39:53.505Z,22.04
2017-02-05T00:40:08.021Z,22.04
2017-02-05T00:40:22.525Z,21.97
2017-02-05T00:40:37.124Z,22
2017-02-05T00:40:51.637Z,22.05
2017-02-05T00:41:06.154Z,22.07
2017-02-05T00:41:20.881Z,22.02
2017-02-05T00:41:35.443Z,21.99
2017-02-05T00:41:49.964Z,21.97
2017-02-05T00:42:04.499Z,22.05
2017-02-05T00:42:18.941Z,22
2017-02-05T00:42:33.553Z,21.99
2017-02-05T00:42:48.140Z,21.92
2017-02-05T00:43:02.681Z,22.05
2017-02-05T00:43:17.220Z,22.07
2017-02-05T00:43:31.739Z,21.97
2017-02-05T00:43:46.238Z,21.94
2017-02-05T00:44:00.816Z,21.96
2017-02-05T00:44:15.286Z,22
2017-02-05T00:44:29.821Z,21.96
2017-02-05T00:44:44.396Z,21.94
2017-02-05T00:44:58.966Z,21.93
2017-02-05T00:45:13.532Z,21.93
2017-02-05T00:45:28.068Z,21.9
2017-02-05T00:45:42.594Z,21.86
2017-02-05T00:45:57.044Z,21.93
2017-02-05T00:46:11.599Z,21.86
2017-02-05T00:46:26.144Z,21.85
2017-02-05T00:46:40.716Z,21.85
2017-02-05T00:46:55.229Z,21.77
2017-02-05T00:47:09.763Z,21.77
2017-02-05T00:47:24.336Z,21.77
2017-02-05T00:47:38.898Z,21.71
2017-02-05T00:47:53.420Z,21.67
2017-02-05T00:48:07.954Z,21.62
2017-02-05T00:48:22.453Z,21.59
2017-02-05T00:48:36.951Z,21.66
2017-02-05T00:48:51.426Z,21.68
2017-02-05T00:49:06.005Z,21.62
2017-02-05T00:49:20.571Z,21.62
2017-02-05T00:49:35.131Z,21.55
2017-02-05T00:49:49.623Z,21.67
2017-02-05T00:50:04.109Z,21.68
2017-02-05T00:50:18.619Z,21.73
2017-02-05T00:50:33.150Z,21.76
2017-02-05T00:50:47.637Z,21.7
2017-02-05T00:51:02.144Z,21.78
2017-02-05T00:51:16.665Z,21.83
2017-02-05T00:51:31.190Z,21.9
2017-02-05T00:51:45.728Z,21.85
2017-02-05T00:52:00.267Z,21.85
2017-02-05T00:52:14.795Z,21.89
2017-02-05T00:52:29.319Z,21.89
2017-02-05T00:52:43.782Z,21.9
2017-02-05T00:52:58.255Z,21.85
2017-02-05T00:53:12.768Z,21.93
2017-02-05T00:53:27.323Z,21.92
2017-02-05T00:53:41.852Z,21.94
2017-02-05T00:53:56.315Z,21.94
2017-02-05T00:54:10.841Z,21.97
2017-02-05T00:54:25.322Z,21.97
2017-02-05T00:54:39.871Z,21.96
2017-02-05T00:54:54.380Z,21.82
2017-02-05T00:55:08.913Z,21.89
2017-02-05T00:55:23.498Z,21.86
2017-02-05T00:55:38.090Z,21.83
2017-02-05T00:55:52.618Z,21.83
2017-02-05T00:56:07.134Z,21.86
2017-02-05T00:56:21.815Z,21.89
2017-02-05T00:56:36.358Z,21.85
2017-02-05T00:56:50.942Z,21.74
2017-02-05T00:57:05.432Z,21.78
2017-02-05T00:57:19.945Z,21.71
2017-02-05T00:57:34.499Z,21.77
2017-02-05T00:57:48.993Z,21.73
2017-02-05T00:58:03.533Z,21.76
2017-02-05T00:58:18.074Z,21.74
2017-02-05T00:58:32.642Z,21.77
2017-02-05T00:58:47.184Z,21.78
2017-02-05T00:59:01.669Z,21.76
2017-02-05T00:59:16.180Z,21.73
2017-02-05T00:59:30.711Z,21.8
2017-02-05T00:59:45.214Z,21.68
2017-02-05T00:59:59.755Z,21.71
2017-02-05T01:00:14.282Z,21.68
2017-02-05T01:00:28.754Z,21.66
2017-02-05T01:00:43.265Z,21.58
2017-02-05T01:00:57.788Z,21.66
2017-02-05T01:01:12.359Z,21.64
2017-02-05T01:01:26.872Z,21.59
2017-02-05T01:01:41.383Z,21.66
2017-02-05T01:01:55.945Z,21.55
2017-02-05T01:02:10.438Z,21.52
2017-02-05T01:02:24.965Z,21.45
2017-02-05T01:02:39.498Z,21.43
2017-02-05T01:02:54.023Z,21.46
2017-02-05T01:03:08.587Z,21.48
2017-02-05T01:03:23.137Z,21.46
2017-02-05T01:03:37.684Z,21.48
2017-02-05T01:03:52.214Z,21.48
2017-02-05T01:04:06.744Z,21.51
2017-02-05T01:04:21.253Z,21.43
2017-02-05T01:04:35.763Z,21.46
2017-02-05T01:04:50.275Z,21.45
2017-02-05T01:05:04.785Z,21.49
2017-02-05T01:05:19.247Z,21.51
2017-02-05T01:05:33.798Z,21.48
2017-02-05T01:05:48.309Z,21.52
2017-02-05T01:06:02.834Z,21.55
2017-02-05T01:06:17.304Z,21.49
2017-02-05T01:06:31.863Z,21.46
2017-02-05T01:06:46.398Z,21.52
2017-02-05T01:07:00.906Z,21.49
2017-02-05T01:07:15.438Z,21.53
2017-02-05T01:07:30.006Z,21.49
2017-02-05T01:07:44.513Z,21.46
2017-02-05T01:07:59.027Z,21.51
2017-02-05T01:08:13.567Z,21.48
2017-02-05T01:08:28.092Z,21.46
2017-02-05T01:08:42.633Z,21.46
2017-02-05T01:08:57.191Z,21.43
2017-02-05T01:09:11.712Z,21.31
2017-02-05T01:09:26.265Z,21.36
2017-02-05T01:09:40.796Z,21.37
2017-02-05T01:09:55.298Z,21.4
2017-02-05T01:10:09.867Z,21.33
2017-02-05T01:10:24.417Z,21.33
2017-02-05T01:10:38.935Z,21.37
2017-02-05T01:10:53.475Z,21.4
2017-02-05T01:11:07.966Z,21.36
2017-02-05T01:11:22.745Z,21.4
2017-02-05T01:11:37.255Z,21.38
2017-02-05T01:11:51.808Z,21.34
2017-02-05T01:12:06.362Z,21.36
2017-02-05T01:12:20.852Z,21.34
2017-02-05T01:12:35.377Z,21.38
2017-02-05T01:12:49.889Z,21.23
2017-02-05T01:13:04.417Z,21.38
2017-02-05T01:13:18.991Z,21.23
2017-02-05T01:13:33.531Z,21.23
2017-02-05T01:13:48.057Z,21.34
2017-02-05T01:14:02.583Z,21.25
2017-02-05T01:14:17.146Z,21.38
2017-02-05T01:14:31.674Z,21.38
2017-02-05T01:14:46.229Z,21.37
2017-02-05T01:15:00.726Z,21.37
2017-02-05T01:15:15.297Z,21.45
2017-02-05T01:15:29.856Z,21.49
2017-02-05T01:15:44.361Z,21.49
2017-02-05T01:15:58.908Z,21.48
2017-02-05T01:16:13.478Z,21.49
2017-02-05T01:16:28.044Z,21.46
2017-02-05T01:16:42.527Z,21.4
2017-02-05T01:16:57.052Z,21.51
2017-02-05T01:17:11.556Z,21.4
2017-02-05T01:17:26.071Z,21.41
2017-02-05T01:17:40.596Z,21.37
2017-02-05T01:17:55.103Z,21.37
2017-02-05T01:18:09.636Z,21.37
2017-02-05T01:18:24.152Z,21.33
2017-02-05T01:18:38.665Z,21.36
2017-02-05T01:18:53.254Z,21.38
2017-02-05T01:19:07.787Z,21.31
2017-02-05T01:19:22.338Z,21.27
2017-02-05T01:19:36.883Z,21.31
2017-02-05T01:19:51.434Z,21.23
2017-02-05T01:20:05.952Z,21.28
2017-02-05T01:20:20.481Z,21.25
2017-02-05T01:20:34.957Z,21.28
2017-02-05T01:20:49.466Z,21.25
2017-02-05T01:21:03.984Z,21.19
2017-02-05T01:21:18.509Z,21.12
2017-02-05T01:21:33.063Z,21.12
2017-02-05T01:21:47.634Z,21.18
2017-02-05T01:22:02.184Z,21.19
2017-02-05T01:22:16.689Z,21.19
2017-02-05T01:22:31.213Z,21.16
2017-02-05T01:22:45.725Z,21.18
2017-02-05T01:23:00.211Z,21.19
2017-02-05T01:23:14.731Z,21.21
2017-02-05T01:23:29.284Z,21.19
2017-02-05T01:23:43.842Z,21.27
2017-02-05T01:23:58.329Z,21.28
2017-02-05T01:24:12.926Z,21.34
2017-02-05T01:24:27.422Z,21.3
2017-02-05T01:24:41.978Z,21.33
2017-02-05T01:24:56.530Z,21.43
2017-02-05T01:25:11.023Z,21.38
2017-02-05T01:25:25.552Z,21.4
2017-02-05T01:25:40.075Z,21.34
2017-02-05T01:25:54.578Z,21.37
2017-02-05T01:26:09.067Z,21.31
2017-02-05T01:26:23.814Z,21.41
2017-02-05T01:26:38.321Z,21.51
2017-02-05T01:26:52.869Z,21.46
2017-02-05T01:27:07.435Z,21.52
2017-02-05T01:27:21.944Z,21.46
2017-02-05T01:27:36.469Z,21.58
2017-02-05T01:27:51.004Z,21.49
2017-02-05T01:28:05.521Z,21.61
2017-02-05T01:28:20.039Z,21.66
2017-02-05T01:28:34.554Z,21.66
2017-02-05T01:28:49.078Z,21.67
2017-02-05T01:29:03.554Z,21.64
2017-02-05T01:29:18.105Z,21.77
2017-02-05T01:29:32.607Z,21.78
2017-02-05T01:29:47.114Z,21.74
2017-02-05T01:30:01.676Z,21.73
2017-02-05T01:30:16.217Z,21.83
2017-02-05T01:30:30.752Z,21.85
2017-02-05T01:30:45.365Z,21.85
2017-02-05T01:30:59.899Z,21.76
2017-02-05T01:31:14.430Z,21.73
2017-02-05T01:31:28.941Z,21.74
2017-02-05T01:31:43.483Z,21.76
2017-02-05T01:31:58.008Z,21.73
2017-02-05T01:32:12.463Z,21.7
2017-02-05T01:32:26.981Z,21.61
2017-02-05T01:32:41.530Z,21.59
2017-02-05T01:32:56.024Z,21.61
2017-02-05T01:33:10.591Z,21.59
2017-02-05T01:33:25.108Z,21.59
2017-02-05T01:33:39.671Z,21.64
2017-02-05T01:33:54.254Z,21.62
2017-02-05T01:34:08.770Z,21.58
2017-02-05T01:34:23.294Z,21.62
2017-02-05T01:34:37.776Z,21.61
2017-02-05T01:34:52.302Z,21.52
2017-02-05T01:35:06.800Z,21.53
2017-02-05T01:35:21.311Z,21.51
2017-02-05T01:35:35.881Z,21.51
2017-02-05T01:35:50.414Z,21.45
2017-02-05T01:36:04.939Z,21.48
2017-02-05T01:36:19.434Z,21.46
2017-02-05T01:36:34.003Z,21.43
2017-02-05T01:36:48.496Z,21.45
2017-02-05T01:37:03.017Z,21.37
2017-02-05T01:37:17.579Z,21.43
2017-02-05T01:37:32.183Z,21.37
2017-02-05T01:37:46.728Z,21.37
2017-02-05T01:38:01.243Z,21.36
2017-02-05T01:38:15.787Z,21.37
2017-02-05T01:38:30.288Z,21.48
2017-02-05T01:38:44.797Z,21.46
2017-02-05T01:38:59.327Z,21.4
2017-02-05T01:39:13.846Z,21.52
2017-02-05T01:39:28.380Z,21.48
2017-02-05T01:39:42.935Z,21.49
2017-02-05T01:39:57.477Z,21.52
2017-02-05T01:40:12.020Z,21.53
2017-02-05T01:40:26.523Z,21.52
2017-02-05T01:40:41.063Z,21.51
2017-02-05T01:40:55.535Z,21.62
2017-02-05T01:41:10.050Z,21.62
2017-02-05T01:41:24.567Z,21.62
2017-02-05T01:41:39.308Z,21.62
2017-02-05T01:41:53.872Z,21.61
2017-02-05T01:42:08.411Z,21.68
2017-02-05T01:42:22.927Z,21.64
2017-02-05T01:42:37.455Z,21.62
2017-02-05T01:42:52.005Z,21.59
2017-02-05T01:43:06.523Z,21.64
2017-02-05T01:43:21.143Z,21.62
2017-02-05T01:43:35.720Z,21.66
2017-02-05T01:43:50.315Z,21.59
2017-02-05T01:44:04.868Z,21.66
2017-02-05T01:44:19.404Z,21.61
2017-02-05T01:44:33.907Z,21.62
2017-02-05T01:44:48.413Z,21.62
2017-02-05T01:45:02.946Z,21.64
2017-02-05T01:45:17.448Z,21.56
2017-02-05T01:45:31.976Z,21.64
2017-02-05T01:45:46.514Z,21.62
2017-02-05T01:46:01.065Z,21.64
2017-02-05T01:46:15.536Z,21.67
2017-02-05T01:46:30.109Z,21.74
2017-02-05T01:46:44.636Z,21.73
2017-02-05T01:46:59.129Z,21.77
2017-02-05T01:47:13.681Z,21.74
2017-02-05T01:47:28.205Z,21.85
2017-02-05T01:47:42.726Z,21.89
2017-02-05T01:47:57.249Z,21.9
2017-02-05T01:48:11.875Z,21.89
2017-02-05T01:48:26.433Z,21.97
2017-02-05T01:48:41.022Z,21.93
2017-02-05T01:48:55.484Z,21.93
2017-02-05T01:49:09.984Z,21.97
2017-02-05T01:49:24.535Z,21.94
2017-02-05T01:49:39.065Z,21.9
2017-02-05T01:49:53.603Z,21.92
2017-02-05T01:50:08.178Z,22.02
2017-02-05T01:50:22.712Z,21.94
2017-02-05T01:50:37.264Z,21.9
2017-02-05T01:50:51.774Z,21.86
2017-02-05T01:51:06.322Z,21.9
2017-02-05T01:51:20.867Z,21.83
2017-02-05T01:51:35.412Z,21.8
2017-02-05T01:51:49.945Z,21.73
2017-02-05T01:52:04.468Z,21.74
2017-02-05T01:52:19.028Z,21.71
2017-02-05T01:52:33.569Z,21.78
2017-02-05T01:52:48.110Z,21.74
2017-02-05T01:53:02.654Z,21.78
2017-02-05T01:53:17.148Z,21.7
2017-02-05T01:53:31.728Z,21.68
2017-02-05T01:53:46.218Z,21.67
2017-02-05T01:54:00.729Z,21.67
2017-02-05T01:54:15.271Z,21.62
2017-02-05T01:54:29.873Z,21.68
2017-02-05T01:54:44.418Z,21.68
2017-02-05T01:54:58.983Z,21.62
2017-02-05T01:55:13.500Z,21.7
2017-02-05T01:55:27.987Z,21.66
2017-02-05T01:55:42.513Z,21.56
2017-02-05T01:55:57.045Z,21.55
2017-02-05T01:56:11.611Z,21.49
2017-02-05T01:56:26.124Z,21.52
2017-02-05T01:56:40.846Z,21.59
2017-02-05T01:56:55.402Z,21.55
2017-02-05T01:57:09.924Z,21.55
2017-02-05T01:57:24.460Z,21.53
2017-02-05T01:57:39.020Z,21.49
2017-02-05T01:57:53.544Z,21.53
2017-02-05T01:58:08.089Z,21.46
2017-02-05T01:58:22.599Z,21.46
2017-02-05T01:58:37.109Z,21.51
2017-02-05T01:58:51.677Z,21.4
2017-02-05T01:59:06.168Z,21.51
2017-02-05T01:59:20.707Z,21.46
2017-02-05T01:59:35.220Z,21.41
2017-02-05T01:59:50.196Z,21.53
2017-02-05T02:00:04.769Z,21.51
2017-02-05T02:00:19.290Z,21.52
2017-02-05T02:00:33.797Z,21.62
2017-02-05T02:00:48.287Z,21.59
2017-02-05T02:01:02.818Z,21.56
2017-02-05T02:01:17.300Z,21.58
2017-02-05T02:01:31.804Z,21.55
2017-02-05T02:01:46.270Z,21.56
2017-02-05T02:02:00.774Z,21.46
2017-02-05T02:02:15.295Z,21.48
2017-02-05T02:02:29.837Z,21.51
2017-02-05T02:02:44.351Z,21.52
2017-02-05T02:02:58.864Z,21.46
2017-02-05T02:03:13.420Z,21.46
2017-02-05T02:03:27.972Z,21.48
2017-02-05T02:03:42.458Z,21.37
2017-02-05T02:03:56.910Z,21.38
2017-02-05T02:04:11.445Z,21.4
2017-02-05T02:04:25.962Z,21.38
2017-02-05T02:04:40.496Z,21.36
2017-02-05T02:04:54.965Z,21.33
2017-02-05T02:05:09.469Z,21.37
2017-02-05T02:05:24.004Z,21.36
2017-02-05T02:05:38.554Z,21.34
2017-02-05T02:05:53.058Z,21.41
2017-02-05T02:06:07.616Z,21.38
2017-02-05T02:06:22.163Z,21.37
2017-02-05T02:06:36.653Z,21.38
2017-02-05T02:06:51.195Z,21.25
2017-02-05T02:07:05.726Z,21.28
2017-02-05T02:07:20.317Z,21.3
2017-02-05T02:07:34.819Z,21.3
2017-02-05T02:07:49.349Z,21.31
2017-02-05T02:08:03.894Z,21.27
2017-02-05T02:08:18.369Z,21.33
2017-02-05T02:08:32.902Z,21.21
2017-02-05T02:08:47.431Z,21.23
2017-02-05T02:09:01.965Z,21.25
2017-02-05T02:09:16.538Z,21.28
2017-02-05T02:09:31.081Z,21.33
2017-02-05T02:09:45.615Z,21.28
2017-02-05T02:10:00.174Z,21.3
2017-02-05T02:10:14.737Z,21.28
2017-02-05T02:10:29.257Z,21.27
2017-02-05T02:10:43.808Z,21.3
2017-02-05T02:10:58.327Z,21.3
2017-02-05T02:11:12.841Z,21.28
2017-02-05T02:11:27.402Z,21.27
2017-02-05T02:11:42.382Z,21.21
2017-02-05T02:11:56.961Z,21.22
2017-02-05T02:12:11.549Z,21.28
2017-02-05T02:12:26.115Z,21.18
2017-02-05T02:12:40.644Z,21.16
2017-02-05T02:12:55.190Z,21.12
2017-02-05T02:13:09.737Z,21.18
2017-02-05T02:13:24.245Z,21.16
2017-02-05T02:13:38.749Z,21.18
2017-02-05T02:13:53.272Z,21.11
2017-02-05T02:14:07.725Z,21.15
2017-02-05T02:14:22.221Z,21.12
2017-02-05T02:14:36.775Z,21.12
2017-02-05T02:14:51.326Z,21.19
2017-02-05T02:15:05.904Z,21.12
2017-02-05T02:15:20.444Z,21.18
2017-02-05T02:15:34.987Z,21.19
2017-02-05T02:15:49.505Z,21.16
2017-02-05T02:16:04.046Z,21.18
2017-02-05T02:16:18.587Z,21.06
2017-02-05T02:16:33.111Z,21.13
2017-02-05T02:16:47.675Z,21.15
2017-02-05T02:17:02.233Z,21.11
2017-02-05T02:17:16.791Z,21.12
2017-02-05T02:17:31.381Z,21.06
2017-02-05T02:17:45.906Z,21.08
2017-02-05T02:18:00.438Z,21.08
2017-02-05T02:18:14.975Z,21.08
2017-02-05T02:18:29.482Z,21.21
2017-02-05T02:18:44.001Z,21.04
2017-02-05T02:18:58.498Z,21.13
2017-02-05T02:19:13.031Z,21.08
2017-02-05T02:19:27.537Z,21.11
2017-02-05T02:19:42.082Z,21.09
2017-02-05T02:19:56.593Z,21.08
2017-02-05T02:20:11.094Z,21.11
2017-02-05T02:20:25.591Z,21.08
2017-02-05T02:20:40.155Z,21.06
2017-02-05T02:20:54.727Z,21.06
2017-02-05T02:21:09.310Z,21.08
2017-02-05T02:21:23.944Z,21.08
2017-02-05T02:21:38.454Z,21.04
2017-02-05T02:21:52.966Z,21.04
2017-02-05T02:22:07.462Z,21.04
2017-02-05T02:22:22.027Z,21.06
2017-02-05T02:22:36.551Z,21.08
2017-02-05T02:22:51.082Z,21.06
2017-02-05T02:23:05.679Z,21.04
2017-02-05T02:23:20.193Z,21.06
2017-02-05T02:23:34.642Z,21.08
2017-02-05T02:23:49.141Z,21.12
2017-02-05T02:24:03.695Z,21.13
2017-02-05T02:24:18.238Z,21.13
2017-02-05T02:24:32.736Z,21.11
2017-02-05T02:24:47.317Z,21.04
2017-02-05T02:25:01.824Z,21.04
2017-02-05T02:25:16.420Z,21.11
2017-02-05T02:25:30.977Z,21.08
2017-02-05T02:25:45.492Z,21.11
2017-02-05T02:25:59.984Z,21.09
2017-02-05T02:26:14.478Z,21.11
2017-02-05T02:26:29.041Z,21.08
2017-02-05T02:26:43.841Z,21.04
2017-02-05T02:26:58.325Z,21.08
2017-02-05T02:27:12.894Z,21.13
2017-02-05T02:27:27.427Z,21.11
2017-02-05T02:27:41.970Z,21.12
2017-02-05T02:27:56.465Z,21.21
2017-02-05T02:28:10.969Z,21.27
2017-02-05T02:28:25.485Z,21.28
2017-02-05T02:28:40.032Z,21.28
2017-02-05T02:28:54.518Z,21.3
2017-02-05T02:29:09.049Z,21.31
2017-02-05T02:29:23.569Z,21.27
2017-02-05T02:29:38.116Z,21.33
2017-02-05T02:29:52.594Z,21.34
2017-02-05T02:30:07.135Z,21.23
2017-02-05T02:30:21.654Z,21.38
2017-02-05T02:30:36.207Z,21.34
2017-02-05T02:30:50.755Z,21.38
2017-02-05T02:31:05.280Z,21.37
2017-02-05T02:31:19.879Z,21.36
2017-02-05T02:31:34.417Z,21.36
2017-02-05T02:31:48.971Z,21.4
2017-02-05T02:32:03.449Z,21.4
2017-02-05T02:32:17.947Z,21.33
2017-02-05T02:32:32.499Z,21.37
2017-02-05T02:32:47.006Z,21.33
2017-02-05T02:33:01.511Z,21.27
2017-02-05T02:33:16.039Z,21.34
2017-02-05T02:33:30.570Z,21.31
2017-02-05T02:33:45.097Z,21.33
2017-02-05T02:33:59.548Z,21.28
2017-02-05T02:34:14.052Z,21.19
2017-02-05T02:34:28.578Z,21.19
2017-02-05T02:34:43.171Z,21.11
2017-02-05T02:34:57.702Z,21.16
2017-02-05T02:35:12.227Z,21.15
2017-02-05T02:35:26.774Z,21.16
2017-02-05T02:35:41.310Z,21.16
2017-02-05T02:35:55.840Z,21.16
2017-02-05T02:36:10.361Z,21.09
2017-02-05T02:36:24.881Z,21.08
2017-02-05T02:36:39.390Z,21.06
2017-02-05T02:36:53.928Z,21.03
2017-02-05T02:37:08.460Z,21.08
2017-02-05T02:37:23.003Z,21.04
2017-02-05T02:37:37.562Z,21.04
2017-02-05T02:37:52.178Z,21.08
2017-02-05T02:38:06.694Z,21.09
2017-02-05T02:38:21.227Z,21.01
2017-02-05T02:38:35.774Z,21.04
2017-02-05T02:38:50.354Z,21
2017-02-05T02:39:04.896Z,20.98
2017-02-05T02:39:19.504Z,20.97
2017-02-05T02:39:34.053Z,21.01
2017-02-05T02:39:48.562Z,21
2017-02-05T02:40:03.082Z,21.01
2017-02-05T02:40:17.565Z,20.97
2017-02-05T02:40:32.119Z,20.97
2017-02-05T02:40:46.620Z,20.97
2017-02-05T02:41:01.139Z,21.04
2017-02-05T02:41:15.614Z,21
2017-02-05T02:41:30.412Z,21.11
2017-02-05T02:41:44.912Z,21.06
2017-02-05T02:42:02.166Z,21.08
2017-02-05T02:42:16.733Z,21.08
2017-02-05T02:42:31.688Z,21
2017-02-05T02:42:47.407Z,21.08
2017-02-05T02:43:01.905Z,21.01
2017-02-05T02:43:16.458Z,21.12
2017-02-05T02:43:31.024Z,21.08
2017-02-05T02:43:45.604Z,21.06
2017-02-05T02:44:00.164Z,21.09
2017-02-05T02:44:14.699Z,21.01
2017-02-05T02:44:29.195Z,21.04
2017-02-05T02:44:43.723Z,21.03
2017-02-05T02:44:58.226Z,21.09
2017-02-05T02:45:12.717Z,21.03
2017-02-05T02:45:27.233Z,21.04
2017-02-05T02:45:41.705Z,21.08
2017-02-05T02:45:56.193Z,21.06
2017-02-05T02:46:10.705Z,21.04
2017-02-05T02:46:25.267Z,21
2017-02-05T02:46:39.817Z,21.04
2017-02-05T02:46:54.340Z,20.98
2017-02-05T02:47:08.870Z,21.06
2017-02-05T02:47:23.442Z,20.98
2017-02-05T02:47:37.996Z,20.97
2017-02-05T02:47:52.497Z,20.98
2017-02-05T02:48:07.009Z,21
2017-02-05T02:48:21.502Z,20.88
2017-02-05T02:48:36.015Z,20.96
2017-02-05T02:48:50.558Z,20.97
2017-02-05T02:49:05.059Z,20.91
2017-02-05T02:49:19.554Z,20.91
2017-02-05T02:49:34.068Z,20.9
2017-02-05T02:49:48.594Z,20.91
2017-02-05T02:50:03.104Z,20.94
2017-02-05T02:50:17.595Z,20.91
2017-02-05T02:50:32.092Z,20.85
2017-02-05T02:50:46.560Z,20.85
2017-02-05T02:51:01.038Z,20.9
2017-02-05T02:51:15.581Z,20.9
2017-02-05T02:51:30.056Z,20.94
2017-02-05T02:51:44.603Z,20.85
2017-02-05T02:51:59.169Z,20.85
2017-02-05T02:52:13.808Z,20.88
2017-02-05T02:52:28.498Z,20.94
2017-02-05T02:52:43.049Z,20.83
2017-02-05T02:52:57.587Z,20.9
2017-02-05T02:53:12.089Z,20.85
2017-02-05T02:53:26.638Z,20.81
2017-02-05T02:53:41.169Z,20.82
2017-02-05T02:53:55.690Z,20.85
2017-02-05T02:54:10.244Z,20.82
2017-02-05T02:54:24.773Z,20.82
2017-02-05T02:54:39.279Z,20.79
2017-02-05T02:54:53.810Z,20.81
2017-02-05T02:55:08.314Z,20.79
2017-02-05T02:55:22.865Z,20.82
2017-02-05T02:55:37.399Z,20.9
2017-02-05T02:55:51.892Z,20.85
2017-02-05T02:56:06.468Z,20.91
2017-02-05T02:56:20.989Z,20.91
2017-02-05T02:56:35.492Z,20.91
2017-02-05T02:56:50.017Z,20.94
2017-02-05T02:57:04.933Z,20.91
2017-02-05T02:57:19.508Z,20.96
2017-02-05T02:57:34.075Z,20.85
2017-02-05T02:57:48.677Z,20.94
2017-02-05T02:58:03.167Z,20.85
2017-02-05T02:58:17.696Z,20.94
2017-02-05T02:58:32.254Z,20.91
2017-02-05T02:58:46.810Z,20.88
2017-02-05T02:59:01.327Z,20.85
2017-02-05T02:59:15.894Z,20.88
2017-02-05T02:59:30.455Z,20.82
2017-02-05T02:59:44.949Z,20.86
2017-02-05T02:59:59.469Z,20.9
2017-02-05T03:00:14.055Z,20.88
2017-02-05T03:00:28.660Z,20.96
2017-02-05T03:00:43.143Z,20.82
2017-02-05T03:00:57.670Z,20.85
2017-02-05T03:01:12.137Z,20.81
2017-02-05T03:01:26.618Z,20.9
2017-02-05T03:01:41.192Z,20.83
2017-02-05T03:01:55.702Z,20.83
2017-02-05T03:02:10.220Z,20.86
2017-02-05T03:02:24.797Z,20.81
2017-02-05T03:02:39.333Z,20.9
2017-02-05T03:02:53.885Z,20.79
2017-02-05T03:03:08.386Z,20.76
2017-02-05T03:03:22.885Z,20.76
2017-02-05T03:03:37.431Z,20.82
2017-02-05T03:03:51.993Z,20.76
2017-02-05T03:04:06.480Z,20.86
2017-02-05T03:04:21.045Z,20.82
2017-02-05T03:04:35.551Z,20.78
2017-02-05T03:04:50.094Z,20.76
2017-02-05T03:05:04.592Z,20.76
2017-02-05T03:05:19.166Z,20.72
2017-02-05T03:05:33.694Z,20.64
2017-02-05T03:05:48.199Z,20.76
2017-02-05T03:06:02.701Z,20.64
2017-02-05T03:06:17.209Z,20.61
2017-02-05T03:06:31.718Z,20.64
2017-02-05T03:06:46.244Z,20.67
2017-02-05T03:07:00.794Z,20.71
2017-02-05T03:07:15.341Z,20.68
2017-02-05T03:07:29.820Z,20.68
2017-02-05T03:07:44.378Z,20.67
2017-02-05T03:07:58.920Z,20.72